createdAt,value
2023-04-23T00:02:03.147Z,48.37
2023-04-23T00:04:33.965Z,47.47
2023-04-23T00:07:01.169Z,55.83
2023-04-23T00:09:32.882Z,51.57
2023-04-23T00:12:00.938Z,53.33
2023-04-23T00:14:28.536Z,47.60
2023-04-23T00:16:55.478Z,47.23
2023-04-23T00:19:22.144Z,47.90
2023-04-23T00:21:49.334Z,47.53
2023-04-23T00:24:15.898Z,48.60
2023-04-23T00:26:42.632Z,46.67
2023-04-23T00:29:09.324Z,51.37
2023-04-23T00:31:36.055Z,45.57
2023-04-23T00:34:03.226Z,48.70
2023-04-23T00:36:29.981Z,46.10
2023-04-23T00:38:56.679Z,45.17
2023-04-23T00:41:23.715Z,44.33
2023-04-23T00:43:52.889Z,44.50
2023-04-23T00:46:19.509Z,47.07
2023-04-23T00:48:47.727Z,47.30
2023-04-23T00:51:16.749Z,43.60
2023-04-23T00:53:43.511Z,48.50
2023-04-23T00:56:10.795Z,47.87
2023-04-23T00:58:38.070Z,50.53
2023-04-23T01:01:05.138Z,46.37
2023-04-23T01:03:32.869Z,52.37
2023-04-23T01:05:59.933Z,56.63
2023-04-23T01:08:26.666Z,47.03
2023-04-23T01:10:53.691Z,51.10
2023-04-23T01:13:20.358Z,50.37
2023-04-23T01:15:46.896Z,55.10
2023-04-23T01:18:15.750Z,49.70
2023-04-23T01:20:43.733Z,54.13
2023-04-23T01:23:10.540Z,48.33
2023-04-23T01:25:37.680Z,56.70
2023-04-23T01:28:06.646Z,53.23
2023-04-23T01:30:33.830Z,50.80
2023-04-23T01:33:01.154Z,53.60
2023-04-23T01:35:28.761Z,51.93
2023-04-23T01:37:56.761Z,48.67
2023-04-23T01:40:23.281Z,49.70
2023-04-23T01:42:50.226Z,51.13
2023-04-23T01:45:19.927Z,52.93
2023-04-23T01:47:47.661Z,50.53
2023-04-23T01:50:14.617Z,46.30
2023-04-23T01:52:42.054Z,56.20
2023-04-23T01:55:09.435Z,51.13
2023-04-23T01:57:36.523Z,53.33
2023-04-23T02:00:11.676Z,50.50
2023-04-23T02:02:39.833Z,54.63
2023-04-23T02:05:20.772Z,54.43
2023-04-23T02:07:51.785Z,54.40
2023-04-23T02:10:18.787Z,53.90
2023-04-23T02:12:45.604Z,49.60
2023-04-23T02:15:12.418Z,49.93
2023-04-23T02:17:39.950Z,55.77
2023-04-23T02:20:09.731Z,63.13
2023-04-23T02:22:39.129Z,57.93
2023-04-23T02:25:07.292Z,54.43
2023-04-23T02:27:34.491Z,56.80
2023-04-23T02:30:01.162Z,57.13
2023-04-23T02:32:28.215Z,52.70
2023-04-23T02:34:54.867Z,56.70
2023-04-23T02:37:21.529Z,59.30
2023-04-23T02:39:48.066Z,58.10
2023-04-23T02:42:14.837Z,49.10
2023-04-23T02:44:41.746Z,56.50
2023-04-23T02:47:08.459Z,52.10
2023-04-23T02:49:34.960Z,48.57
2023-04-23T02:52:02.019Z,49.17
2023-04-23T02:54:28.583Z,57.57
2023-04-23T02:56:55.119Z,49.83
2023-04-23T02:59:21.592Z,51.30
2023-04-23T03:01:48.222Z,50.33
2023-04-23T03:04:14.846Z,49.90
2023-04-23T03:06:41.935Z,50.73
2023-04-23T03:09:08.878Z,51.83
2023-04-23T03:11:35.457Z,47.57
2023-04-23T03:14:01.924Z,45.93
2023-04-23T03:16:29.450Z,41.70
2023-04-23T03:18:56.365Z,50.10
2023-04-23T03:21:22.982Z,49.67
2023-04-23T03:23:49.448Z,52.83
2023-04-23T03:26:16.019Z,48.43
2023-04-23T03:28:42.496Z,37.53
2023-04-23T03:31:09.359Z,41.00
2023-04-23T03:33:35.943Z,40.13
2023-04-23T03:36:02.659Z,44.90
2023-04-23T03:38:29.198Z,37.83
2023-04-23T03:40:56.051Z,33.57
2023-04-23T03:43:22.655Z,34.37
2023-04-23T03:45:49.124Z,37.90
2023-04-23T03:48:16.104Z,35.27
2023-04-23T03:50:42.635Z,38.70
2023-04-23T03:53:10.125Z,39.10
2023-04-23T03:55:36.623Z,33.00
2023-04-23T03:58:03.481Z,33.37
2023-04-23T04:00:30.146Z,36.77
2023-04-23T04:02:56.748Z,33.23
2023-04-23T04:05:23.524Z,35.33
2023-04-23T04:07:50.342Z,34.27
2023-04-23T04:10:16.895Z,31.30
2023-04-23T04:12:44.961Z,31.90
2023-04-23T04:15:16.081Z,26.33
2023-04-23T04:17:42.701Z,29.60
2023-04-23T04:20:11.155Z,27.07
2023-04-23T04:22:37.874Z,27.70
2023-04-23T04:25:05.288Z,38.50
2023-04-23T04:27:34.717Z,27.10
2023-04-23T04:30:02.133Z,28.40
2023-04-23T04:32:28.689Z,31.10
2023-04-23T04:34:55.344Z,27.23
2023-04-23T04:37:21.895Z,27.10
2023-04-23T04:39:48.387Z,28.70
2023-04-23T04:42:15.707Z,26.70
2023-04-23T04:44:43.670Z,28.70
2023-04-23T04:47:10.695Z,28.00
2023-04-23T04:49:38.197Z,28.10
2023-04-23T04:52:04.735Z,32.13
2023-04-23T04:54:31.203Z,27.93
2023-04-23T04:56:57.690Z,32.03
2023-04-23T04:59:24.298Z,26.77
2023-04-23T05:01:50.934Z,28.37
2023-04-23T05:04:17.742Z,27.00
2023-04-23T05:06:44.482Z,28.83
2023-04-23T05:09:11.482Z,29.30
2023-04-23T05:11:38.134Z,25.00
2023-04-23T05:14:04.844Z,27.93
2023-04-23T05:16:31.412Z,24.47
2023-04-23T05:18:58.113Z,25.77
2023-04-23T05:21:24.864Z,25.50
2023-04-23T05:23:51.392Z,25.80
2023-04-23T05:26:18.227Z,28.13
2023-04-23T05:28:44.799Z,25.73
2023-04-23T05:31:11.419Z,27.10
2023-04-23T05:33:49.162Z,23.47
2023-04-23T05:36:17.470Z,24.23
2023-04-23T05:38:44.025Z,25.07
2023-04-23T05:41:10.683Z,23.33
2023-04-23T05:43:37.354Z,25.70
2023-04-23T05:46:07.581Z,24.00
2023-04-23T05:48:34.678Z,22.57
2023-04-23T05:51:01.291Z,21.77
2023-04-23T05:53:28.522Z,22.13
2023-04-23T05:55:55.014Z,22.57
2023-04-23T05:58:21.714Z,25.77
2023-04-23T06:00:48.394Z,21.90
2023-04-23T06:03:15.024Z,21.40
2023-04-23T06:05:43.245Z,27.00
2023-04-23T06:08:09.906Z,18.63
2023-04-23T06:10:36.434Z,22.17
2023-04-23T06:13:03.140Z,20.63
2023-04-23T06:15:29.815Z,18.77
2023-04-23T06:17:56.504Z,21.03
2023-04-23T06:20:23.019Z,20.57
2023-04-23T06:22:49.520Z,17.50
2023-04-23T06:25:16.057Z,18.30
2023-04-23T06:27:42.703Z,18.90
2023-04-23T06:30:09.567Z,16.30
2023-04-23T06:32:36.302Z,17.73
2023-04-23T06:35:04.439Z,18.10
2023-04-23T06:37:31.867Z,17.27
2023-04-23T06:39:59.180Z,16.40
2023-04-23T06:42:25.777Z,16.03
2023-04-23T06:44:52.481Z,16.00
2023-04-23T06:47:19.530Z,15.87
2023-04-23T06:49:46.240Z,13.70
2023-04-23T06:52:12.884Z,14.40
2023-04-23T06:54:39.762Z,13.90
2023-04-23T06:57:06.656Z,13.17
2023-04-23T06:59:33.190Z,11.67
2023-04-23T07:01:59.746Z,12.23
2023-04-23T07:04:26.315Z,13.07
2023-04-23T07:06:52.828Z,13.00
2023-04-23T07:09:19.876Z,11.77
2023-04-23T07:11:46.472Z,11.37
2023-04-23T07:14:12.968Z,11.30
2023-04-23T07:16:39.582Z,12.50
2023-04-23T07:19:06.132Z,11.47
2023-04-23T07:21:33.054Z,13.70
2023-04-23T07:24:07.035Z,10.80
2023-04-23T07:26:34.816Z,9.90
2023-04-23T07:29:01.858Z,11.30
2023-04-23T07:31:31.349Z,10.13
2023-04-23T07:33:57.946Z,8.90
2023-04-23T07:36:24.631Z,9.77
2023-04-23T07:38:51.263Z,9.47
2023-04-23T07:41:18.307Z,9.90
2023-04-23T07:43:45.056Z,9.93
2023-04-23T07:46:11.871Z,9.63
2023-04-23T07:48:38.425Z,10.43
2023-04-23T07:51:06.411Z,9.13
2023-04-23T07:53:32.965Z,8.73
2023-04-23T07:56:00.489Z,9.30
2023-04-23T07:58:27.149Z,8.83
2023-04-23T08:00:53.731Z,9.57
2023-04-23T08:03:20.546Z,8.57
2023-04-23T08:05:47.494Z,7.97
2023-04-23T08:08:14.288Z,8.47
2023-04-23T08:10:40.921Z,8.23
2023-04-23T08:13:07.885Z,11.80
2023-04-23T08:15:34.396Z,8.10
2023-04-23T08:18:01.115Z,8.53
2023-04-23T08:20:27.647Z,6.83
2023-04-23T08:22:54.199Z,7.30
2023-04-23T08:25:21.062Z,7.80
2023-04-23T08:27:47.630Z,7.53
2023-04-23T08:30:14.286Z,6.40
2023-04-23T08:32:40.843Z,6.00
2023-04-23T08:35:08.305Z,6.53
2023-04-23T08:37:34.926Z,6.50
2023-04-23T08:40:01.695Z,6.73
2023-04-23T08:43:07.306Z,6.53
2023-04-23T08:45:34.705Z,6.30
2023-04-23T08:48:02.626Z,6.77
2023-04-23T08:50:29.920Z,6.33
2023-04-23T08:52:57.930Z,7.80
2023-04-23T08:55:24.830Z,4.83
2023-04-23T08:57:51.672Z,4.57
2023-04-23T09:00:19.870Z,5.23
2023-04-23T09:02:47.828Z,6.43
2023-04-23T09:05:15.268Z,5.23
2023-04-23T09:07:42.393Z,8.40
2023-04-23T09:10:11.576Z,5.97
2023-04-23T09:12:40.931Z,6.63
2023-04-23T09:15:11.850Z,5.67
2023-04-23T09:17:41.234Z,5.93
2023-04-23T09:20:11.278Z,7.57
2023-04-23T09:22:48.356Z,4.43
2023-04-23T09:25:23.221Z,4.10
2023-04-23T09:27:51.497Z,4.33
2023-04-23T09:30:19.073Z,3.83
2023-04-23T09:32:46.977Z,4.57
2023-04-23T09:35:19.588Z,4.27
2023-04-23T09:37:49.767Z,4.43
2023-04-23T09:40:18.594Z,4.10
2023-04-23T09:42:49.939Z,4.07
2023-04-23T09:45:17.033Z,4.40
2023-04-23T09:47:58.008Z,3.53
2023-04-23T09:50:38.994Z,4.40
2023-04-23T09:53:09.280Z,6.10
2023-04-23T09:55:39.827Z,3.33
2023-04-23T09:58:11.086Z,3.73
2023-04-23T10:00:39.021Z,3.77
2023-04-23T10:03:10.007Z,3.13
2023-04-23T10:08:13.802Z,4.20
2023-04-23T10:10:55.189Z,3.10
2023-04-23T10:13:26.922Z,4.70
2023-04-23T10:15:54.008Z,3.63
2023-04-23T10:18:20.780Z,2.97
2023-04-23T10:20:48.746Z,4.83
2023-04-23T10:23:16.147Z,3.00
2023-04-23T10:25:42.841Z,4.13
2023-04-23T10:28:11.766Z,3.90
2023-04-23T10:30:38.576Z,4.30
2023-04-23T10:33:10.807Z,4.27
2023-04-23T10:35:42.510Z,3.07
2023-04-23T10:38:09.074Z,3.23
2023-04-23T10:40:37.898Z,2.50
2023-04-23T10:43:04.429Z,5.10
2023-04-23T10:45:32.049Z,2.53
2023-04-23T10:47:58.742Z,4.00
2023-04-23T10:50:27.042Z,3.70
2023-04-23T10:52:54.601Z,4.10
2023-04-23T10:55:32.176Z,3.40
2023-04-23T10:58:07.346Z,6.90
2023-04-23T11:00:46.318Z,3.60
2023-04-23T11:03:32.357Z,2.90
2023-04-23T11:06:03.431Z,2.80
2023-04-23T11:08:34.041Z,3.40
2023-04-23T11:11:02.347Z,3.97
2023-04-23T11:13:30.298Z,3.93
2023-04-23T11:16:23.504Z,3.53
2023-04-23T11:19:16.153Z,3.30
2023-04-23T11:21:59.558Z,2.60
2023-04-23T11:24:30.732Z,2.37
2023-04-23T11:26:58.095Z,2.47
2023-04-23T11:29:25.955Z,1.80
2023-04-23T11:32:02.523Z,1.80
2023-04-23T11:34:30.276Z,3.00
2023-04-23T11:36:58.783Z,2.50
2023-04-23T11:39:25.837Z,1.63
2023-04-23T11:41:53.362Z,1.97
2023-04-23T11:44:21.447Z,2.30
2023-04-23T11:46:49.402Z,2.57
2023-04-23T11:49:17.241Z,2.20
2023-04-23T11:51:44.762Z,2.83
2023-04-23T11:54:12.149Z,5.13
2023-04-23T11:56:38.935Z,2.63
2023-04-23T11:59:06.138Z,2.07
2023-04-23T12:01:53.258Z,2.17
2023-04-23T12:04:21.758Z,3.17
2023-04-23T12:06:49.544Z,1.83
2023-04-23T12:09:18.233Z,4.73
2023-04-23T12:11:45.716Z,2.33
2023-04-23T12:14:14.159Z,2.17
2023-04-23T12:16:52.178Z,1.80
2023-04-23T12:19:20.928Z,4.53
2023-04-23T12:21:58.434Z,2.27
2023-04-23T12:24:26.971Z,1.80
2023-04-23T12:26:55.904Z,2.10
2023-04-23T12:29:23.329Z,2.43
2023-04-23T12:31:52.260Z,1.70
2023-04-23T12:34:20.530Z,1.77
2023-04-23T12:36:52.161Z,3.13
2023-04-23T12:39:34.542Z,2.47
2023-04-23T12:42:06.585Z,3.30
2023-04-23T12:44:37.572Z,1.20
2023-04-23T12:47:07.343Z,1.70
2023-04-23T12:49:36.033Z,1.87
2023-04-23T12:52:04.055Z,1.10
2023-04-23T12:54:32.653Z,1.63
2023-04-23T12:57:01.957Z,1.20
2023-04-23T12:59:29.292Z,1.20
2023-04-23T13:01:56.048Z,2.03
2023-04-23T13:04:22.614Z,1.67
2023-04-23T13:06:49.367Z,1.80
2023-04-23T13:09:15.870Z,3.13
2023-04-23T13:11:42.535Z,1.97
2023-04-23T13:14:09.355Z,1.47
2023-04-23T13:16:36.540Z,3.00
2023-04-23T13:19:03.127Z,2.53
2023-04-23T13:21:29.638Z,3.30
2023-04-23T13:23:56.975Z,1.83
2023-04-23T13:26:23.562Z,3.73
2023-04-23T13:28:50.370Z,1.90
2023-04-23T13:31:16.959Z,1.47
2023-04-23T13:33:43.479Z,1.93
2023-04-23T13:36:10.177Z,3.73
2023-04-23T13:38:36.990Z,1.60
2023-04-23T13:41:03.560Z,1.40
2023-04-23T13:43:30.606Z,2.90
2023-04-23T13:45:57.296Z,3.67
2023-04-23T13:48:28.581Z,3.20
2023-04-23T13:50:55.834Z,1.57
2023-04-23T13:53:22.825Z,6.10
2023-04-23T13:55:49.660Z,2.63
2023-04-23T13:58:16.283Z,5.37
2023-04-23T14:00:43.361Z,3.20
2023-04-23T14:03:10.113Z,2.70
2023-04-23T14:05:36.972Z,1.70
2023-04-23T14:08:03.605Z,1.70
2023-04-23T14:10:30.100Z,2.63
2023-04-23T14:12:56.737Z,5.57
2023-04-23T14:15:23.394Z,1.97
2023-04-23T14:17:49.967Z,1.90
2023-04-23T14:20:16.670Z,3.20
2023-04-23T14:22:43.554Z,1.40
2023-04-23T14:25:14.815Z,2.03
2023-04-23T14:27:46.602Z,1.33
2023-04-23T14:30:19.122Z,2.43
2023-04-23T14:32:49.433Z,2.90
2023-04-23T14:35:17.398Z,1.80
2023-04-23T14:37:45.438Z,1.73
2023-04-23T14:40:19.713Z,1.33
2023-04-23T14:42:48.086Z,1.67
2023-04-23T14:45:18.936Z,1.50
2023-04-23T14:47:50.774Z,1.10
2023-04-23T14:50:17.436Z,1.53
2023-04-23T14:52:48.277Z,1.30
2023-04-23T14:55:15.430Z,2.20
2023-04-23T14:57:42.886Z,1.00
2023-04-23T15:00:13.088Z,5.03
2023-04-23T15:02:42.945Z,2.03
2023-04-23T15:05:09.787Z,1.10
2023-04-23T15:07:42.497Z,2.60
2023-04-23T15:10:11.249Z,3.87
2023-04-23T15:12:41.121Z,1.73
2023-04-23T15:15:47.243Z,3.00
2023-04-23T15:18:14.730Z,1.90
2023-04-23T15:20:43.837Z,2.00
2023-04-23T15:23:10.640Z,2.73
2023-04-23T15:25:39.143Z,1.37
2023-04-23T15:28:07.060Z,1.53
2023-04-23T15:30:33.977Z,3.03
2023-04-23T15:33:00.883Z,3.83
2023-04-23T15:35:27.984Z,4.13
2023-04-23T15:37:54.760Z,1.87
2023-04-23T15:40:21.801Z,2.97
2023-04-23T15:42:49.937Z,2.33
2023-04-23T15:45:17.074Z,2.87
2023-04-23T15:47:43.975Z,1.73
2023-04-23T15:50:11.682Z,2.77
2023-04-23T15:52:38.857Z,2.10
2023-04-23T15:55:06.379Z,2.40
2023-04-23T15:57:33.004Z,2.20
2023-04-23T15:59:59.805Z,2.97
2023-04-23T16:02:27.261Z,2.87
2023-04-23T16:04:53.947Z,2.40
2023-04-23T16:07:20.668Z,2.20
2023-04-23T16:09:47.371Z,5.70
2023-04-23T16:12:13.885Z,2.40
2023-04-23T16:14:42.574Z,1.60
2023-04-23T16:17:09.221Z,2.17
2023-04-23T16:19:35.999Z,2.80
2023-04-23T16:22:02.511Z,2.27
2023-04-23T16:24:29.811Z,1.80
2023-04-23T16:26:56.416Z,2.10
2023-04-23T16:29:23.375Z,2.10
2023-04-23T16:31:50.139Z,1.77
2023-04-23T16:34:17.222Z,2.10
2023-04-23T16:36:43.776Z,1.70
2023-04-23T16:39:11.206Z,2.03
2023-04-23T16:41:38.234Z,1.97
2023-04-23T16:44:04.915Z,3.43
2023-04-23T16:46:32.060Z,1.67
2023-04-23T16:48:59.820Z,2.13
2023-04-23T16:51:26.961Z,1.90
2023-04-23T16:53:54.028Z,1.70
2023-04-23T16:56:21.105Z,3.80
2023-04-23T16:58:47.965Z,2.07
2023-04-23T17:01:15.592Z,2.40
2023-04-23T17:03:42.708Z,2.73
2023-04-23T17:06:25.292Z,2.10
2023-04-23T17:08:51.796Z,3.90
2023-04-23T17:11:18.372Z,2.60
2023-04-23T17:13:44.956Z,3.00
2023-04-23T17:16:14.587Z,1.40
2023-04-23T17:18:41.089Z,1.60
2023-04-23T17:21:07.961Z,1.57
2023-04-23T17:23:34.556Z,1.70
2023-04-23T17:26:01.118Z,1.47
2023-04-23T17:28:27.641Z,3.20
2023-04-23T17:30:55.806Z,1.83
2023-04-23T17:33:23.039Z,1.57
2023-04-23T17:35:53.556Z,1.40
2023-04-23T17:38:20.734Z,1.73
2023-04-23T17:40:48.036Z,1.70
2023-04-23T17:43:14.552Z,2.13
2023-04-23T17:45:41.521Z,2.63
2023-04-23T17:48:08.351Z,2.20
2023-04-23T17:50:34.993Z,1.80
2023-04-23T17:53:01.460Z,2.53
2023-04-23T17:55:28.072Z,3.33
2023-04-23T17:57:54.530Z,5.70
2023-04-23T18:00:21.278Z,4.13
2023-04-23T18:02:47.998Z,3.70
2023-04-23T18:05:16.842Z,3.30
2023-04-23T18:07:44.614Z,5.73
2023-04-23T18:10:12.393Z,4.57
2023-04-23T18:12:39.378Z,3.90
2023-04-23T18:15:06.442Z,4.07
2023-04-23T18:17:32.933Z,4.97
2023-04-23T18:19:59.401Z,9.40
2023-04-23T18:22:25.879Z,6.80
2023-04-23T18:24:52.525Z,5.57
2023-04-23T18:27:19.562Z,8.20
2023-04-23T18:29:46.357Z,6.90
2023-04-23T18:32:20.935Z,4.20
2023-04-23T18:34:54.463Z,4.40
2023-04-23T18:37:39.033Z,2.70
2023-04-23T18:40:06.252Z,2.90
2023-04-23T18:42:33.283Z,2.23
2023-04-23T18:44:59.878Z,2.20
2023-04-23T18:47:32.015Z,1.93
2023-04-23T18:50:03.276Z,2.50
2023-04-23T18:52:29.761Z,4.60
2023-04-23T18:54:56.240Z,6.67
2023-04-23T18:57:22.948Z,3.73
2023-04-23T18:59:49.595Z,4.50
2023-04-23T19:02:24.707Z,2.27
2023-04-23T19:05:00.812Z,2.10
2023-04-23T19:07:27.344Z,3.87
2023-04-23T19:09:53.881Z,2.10
2023-04-23T19:12:20.477Z,2.07
2023-04-23T19:14:46.977Z,2.03
2023-04-23T19:17:13.521Z,2.93
2023-04-23T19:19:40.175Z,2.30
2023-04-23T19:22:06.906Z,2.70
2023-04-23T19:24:34.408Z,2.53
2023-04-23T19:27:01.363Z,2.27
2023-04-23T19:29:27.886Z,2.37
2023-04-23T19:31:54.880Z,6.40
2023-04-23T19:34:21.779Z,3.20
2023-04-23T19:36:48.757Z,3.83
2023-04-23T19:39:15.328Z,2.60
2023-04-23T19:41:41.813Z,2.80
2023-04-23T19:44:08.352Z,1.77
2023-04-23T19:46:37.539Z,2.60
2023-04-23T19:49:04.050Z,2.40
2023-04-23T19:51:32.932Z,2.00
2023-04-23T19:53:59.482Z,2.37
2023-04-23T19:56:27.048Z,3.43
2023-04-23T19:58:53.741Z,2.13
2023-04-23T20:01:20.742Z,2.00
2023-04-23T20:03:51.966Z,2.80
2023-04-23T20:06:19.671Z,1.70
2023-04-23T20:09:04.529Z,2.33
2023-04-23T20:11:31.267Z,2.83
2023-04-23T20:13:57.828Z,2.10
2023-04-23T20:16:24.426Z,2.43
2023-04-23T20:18:51.068Z,6.87
2023-04-23T20:21:17.739Z,6.83
2023-04-23T20:23:44.280Z,5.90
2023-04-23T20:26:11.051Z,9.87
2023-04-23T20:28:37.645Z,8.33
2023-04-23T20:31:04.559Z,10.57
2023-04-23T20:33:31.099Z,6.60
2023-04-23T20:35:58.775Z,4.97
2023-04-23T20:38:30.728Z,3.60
2023-04-23T20:41:02.608Z,3.43
2023-04-23T20:43:29.643Z,2.20
2023-04-23T20:45:56.772Z,5.40
2023-04-23T20:48:25.796Z,2.50
2023-04-23T20:50:52.570Z,1.90
2023-04-23T20:53:19.138Z,1.40
2023-04-23T20:55:45.761Z,1.70
2023-04-23T20:58:12.331Z,3.10
2023-04-23T21:00:38.831Z,2.33
2023-04-23T21:03:06.083Z,2.20
2023-04-23T21:05:32.739Z,2.47
2023-04-23T21:07:59.267Z,1.87
2023-04-23T21:10:25.778Z,1.47
2023-04-23T21:12:52.583Z,1.30
2023-04-23T21:15:19.099Z,2.17
2023-04-23T21:17:46.012Z,1.50
2023-04-23T21:20:12.665Z,1.10
2023-04-23T21:22:39.212Z,1.83
2023-04-23T21:25:06.207Z,1.77
2023-04-23T21:27:32.930Z,1.30
2023-04-23T21:30:05.818Z,1.27
2023-04-23T21:32:32.685Z,1.73
2023-04-23T21:34:59.175Z,4.43
2023-04-23T21:37:25.656Z,2.87
2023-04-23T21:39:52.205Z,1.83
2023-04-23T21:42:18.802Z,1.30
2023-04-23T21:44:45.301Z,1.63
2023-04-23T21:47:11.922Z,2.90
2023-04-23T21:49:38.546Z,1.10
2023-04-23T21:52:05.021Z,1.73
2023-04-23T21:54:31.530Z,2.27
2023-04-23T21:56:58.053Z,3.43
2023-04-23T21:59:24.872Z,1.73
2023-04-23T22:01:51.469Z,1.73
2023-04-23T22:04:18.497Z,1.03
2023-04-23T22:06:47.000Z,1.40
2023-04-23T22:09:14.119Z,2.00
2023-04-23T22:11:44.196Z,1.47
2023-04-23T22:14:15.879Z,1.20
2023-04-23T22:16:42.397Z,0.90
2023-04-23T22:19:10.198Z,7.73
2023-04-23T22:21:36.667Z,1.10
2023-04-23T22:24:03.725Z,1.23
2023-04-23T22:26:30.276Z,1.30
2023-04-23T22:28:56.837Z,1.40
2023-04-23T22:31:23.350Z,1.20
2023-04-23T22:33:49.901Z,1.40
2023-04-23T22:36:16.981Z,0.80
2023-04-23T22:38:43.458Z,0.80
2023-04-23T22:41:09.979Z,0.80
2023-04-23T22:43:36.494Z,0.80
2023-04-23T22:46:03.104Z,0.70
2023-04-23T22:48:30.783Z,1.30
2023-04-23T22:50:57.614Z,0.80
2023-04-23T22:53:24.073Z,0.97
2023-04-23T22:55:51.445Z,1.00
2023-04-23T22:58:17.975Z,0.80
2023-04-23T23:00:44.544Z,0.90
2023-04-23T23:03:11.882Z,1.00
2023-04-23T23:05:38.676Z,0.80
2023-04-23T23:08:05.244Z,2.70
2023-04-23T23:10:32.184Z,1.10
2023-04-23T23:12:58.720Z,0.90
2023-04-23T23:15:25.559Z,3.37
2023-04-23T23:17:52.103Z,0.80
2023-04-23T23:20:19.704Z,1.10
2023-04-23T23:22:46.479Z,3.33
2023-04-23T23:25:13.180Z,1.20
2023-04-23T23:27:39.675Z,1.30
2023-04-23T23:30:07.709Z,2.13
2023-04-23T23:32:34.240Z,1.40
2023-04-23T23:35:00.820Z,1.57
2023-04-23T23:37:27.713Z,0.80
2023-04-23T23:39:54.172Z,1.20
2023-04-23T23:42:21.179Z,1.10
2023-04-23T23:44:47.712Z,1.10
2023-04-23T23:47:14.297Z,0.80
2023-04-23T23:49:41.888Z,1.13
2023-04-23T23:52:08.734Z,1.07
2023-04-23T23:54:35.904Z,1.43
2023-04-23T23:57:02.463Z,1.20
2023-04-23T23:59:29.155Z,1.20
